sensor_id;sensor_type;location;lat;lon;timestamp;pressure;altitude;pressure_sealevel;temperature;humidity
75409;BME280;63979;55.644;37.734;2024-03-22T00:03:08;100655.59;;;2.45;49.77
75409;BME280;63979;55.644;37.734;2024-03-22T00:08:09;100655.78;;;2.36;50.46
75409;BME280;63979;55.644;37.734;2024-03-22T00:13:11;100671.78;;;2.27;51.76
75409;BME280;63979;55.644;37.734;2024-03-22T00:18:11;100679.13;;;2.12;50.18
75409;BME280;63979;55.644;37.734;2024-03-22T00:23:12;100668.84;;;1.99;51.73
75409;BME280;63979;55.644;37.734;2024-03-22T00:28:13;100664.34;;;2.04;52.33
75409;BME280;63979;55.644;37.734;2024-03-22T00:33:14;100662.63;;;2.03;50.95
75409;BME280;63979;55.644;37.734;2024-03-22T00:38:15;100653.84;;;2.02;50.84
75409;BME280;63979;55.644;37.734;2024-03-22T00:43:15;100664.28;;;2.08;50.70
75409;BME280;63979;55.644;37.734;2024-03-22T00:48:16;100652.69;;;1.74;50.42
75409;BME280;63979;55.644;37.734;2024-03-22T00:53:18;100657.66;;;1.89;50.75
75409;BME280;63979;55.644;37.734;2024-03-22T00:58:19;100624.81;;;1.62;51.31
75409;BME280;63979;55.644;37.734;2024-03-22T01:03:20;100655.44;;;1.66;52.00
75409;BME280;63979;55.644;37.734;2024-03-22T01:08:21;100660.63;;;1.71;51.79
75409;BME280;63979;55.644;37.734;2024-03-22T01:13:22;100657.22;;;1.66;52.19
75409;BME280;63979;55.644;37.734;2024-03-22T01:18:23;100652.00;;;1.63;51.66
75409;BME280;63979;55.644;37.734;2024-03-22T01:23:24;100614.75;;;1.38;52.47
75409;BME280;63979;55.644;37.734;2024-03-22T01:28:25;100638.13;;;1.54;52.46
75409;BME280;63979;55.644;37.734;2024-03-22T01:33:25;100635.53;;;1.53;52.35
75409;BME280;63979;55.644;37.734;2024-03-22T01:38:26;100590.50;;;1.22;52.88
75409;BME280;63979;55.644;37.734;2024-03-22T01:43:27;100616.41;;;1.45;53.08
75409;BME280;63979;55.644;37.734;2024-03-22T01:48:28;100616.47;;;1.42;53.07
75409;BME280;63979;55.644;37.734;2024-03-22T01:53:29;100604.19;;;1.42;53.26
75409;BME280;63979;55.644;37.734;2024-03-22T01:58:30;100585.03;;;1.33;53.40
75409;BME280;63979;55.644;37.734;2024-03-22T02:03:31;100616.59;;;1.33;53.44
75409;BME280;63979;55.644;37.734;2024-03-22T02:08:31;100600.91;;;1.28;53.72
75409;BME280;63979;55.644;37.734;2024-03-22T02:13:32;100607.22;;;1.19;54.29
75409;BME280;63979;55.644;37.734;2024-03-22T02:18:33;100601.09;;;1.19;55.14
75409;BME280;63979;55.644;37.734;2024-03-22T02:23:35;100598.41;;;1.22;54.57
75409;BME280;63979;55.644;37.734;2024-03-22T02:28:37;100565.50;;;0.98;54.94
75409;BME280;63979;55.644;37.734;2024-03-22T02:33:37;100592.56;;;1.06;55.42
75409;BME280;63979;55.644;37.734;2024-03-22T02:38:38;100503.19;;;0.57;56.04
75409;BME280;63979;55.644;37.734;2024-03-22T02:43:39;100583.84;;;1.04;55.51
75409;BME280;63979;55.644;37.734;2024-03-22T02:48:40;100582.22;;;0.96;56.35
75409;BME280;63979;55.644;37.734;2024-03-22T02:53:41;100584.72;;;1.02;56.55
75409;BME280;63979;55.644;37.734;2024-03-22T02:58:42;100577.69;;;1.04;56.63
75409;BME280;63979;55.644;37.734;2024-03-22T03:03:42;100564.72;;;0.93;57.29
75409;BME280;63979;55.644;37.734;2024-03-22T03:08:44;100527.50;;;0.70;58.14
75409;BME280;63979;55.644;37.734;2024-03-22T03:13:45;100574.38;;;0.92;57.55
75409;BME280;63979;55.644;37.734;2024-03-22T03:18:46;100549.41;;;0.67;59.30
75409;BME280;63979;55.644;37.734;2024-03-22T03:23:46;100558.25;;;0.61;60.67
75409;BME280;63979;55.644;37.734;2024-03-22T03:28:48;100567.09;;;0.57;61.95
75409;BME280;63979;55.644;37.734;2024-03-22T03:33:48;100564.53;;;0.53;62.51
75409;BME280;63979;55.644;37.734;2024-03-22T03:38:49;100559.28;;;0.53;62.66
75409;BME280;63979;55.644;37.734;2024-03-22T03:43:50;100527.75;;;0.53;62.21
75409;BME280;63979;55.644;37.734;2024-03-22T03:48:51;100540.53;;;0.76;63.26
75409;BME280;63979;55.644;37.734;2024-03-22T03:53:52;100542.94;;;0.88;62.49
75409;BME280;63979;55.644;37.734;2024-03-22T03:58:53;100545.13;;;1.12;61.19
75409;BME280;63979;55.644;37.734;2024-03-22T04:03:54;100544.78;;;1.29;58.35
75409;BME280;63979;55.644;37.734;2024-03-22T04:08:55;100534.47;;;1.63;56.78
75409;BME280;63979;55.644;37.734;2024-03-22T04:13:56;100543.78;;;1.79;55.77
75409;BME280;63979;55.644;37.734;2024-03-22T04:18:57;100522.44;;;1.93;55.33
75409;BME280;63979;55.644;37.734;2024-03-22T04:23:58;100529.63;;;2.24;54.12
75409;BME280;63979;55.644;37.734;2024-03-22T04:28:59;100510.16;;;2.31;53.15
75409;BME280;63979;55.644;37.734;2024-03-22T04:34:00;100514.75;;;2.58;52.28
75409;BME280;63979;55.644;37.734;2024-03-22T04:39:02;100532.94;;;2.69;52.31
75409;BME280;63979;55.644;37.734;2024-03-22T04:44:04;100531.75;;;2.46;52.97
75409;BME280;63979;55.644;37.734;2024-03-22T04:49:05;100539.47;;;2.54;53.31
75409;BME280;63979;55.644;37.734;2024-03-22T04:54:06;100529.31;;;3.07;51.05
75409;BME280;63979;55.644;37.734;2024-03-22T04:59:07;100530.34;;;4.24;48.33
75409;BME280;63979;55.644;37.734;2024-03-22T05:04:08;100528.16;;;4.08;48.45
75409;BME280;63979;55.644;37.734;2024-03-22T05:09:09;100527.53;;;5.08;46.21
75409;BME280;63979;55.644;37.734;2024-03-22T05:14:10;100518.63;;;6.72;42.47
75409;BME280;63979;55.644;37.734;2024-03-22T05:19:11;100519.13;;;8.38;38.77
75409;BME280;63979;55.644;37.734;2024-03-22T05:24:12;100513.91;;;10.70;34.71
75409;BME280;63979;55.644;37.734;2024-03-22T05:29:13;100515.78;;;12.00;31.29
75409;BME280;63979;55.644;37.734;2024-03-22T05:34:15;100505.63;;;13.27;29.72
75409;BME280;63979;55.644;37.734;2024-03-22T05:39:16;100510.63;;;14.08;28.07
75409;BME280;63979;55.644;37.734;2024-03-22T05:44:18;100507.72;;;15.77;25.71
75409;BME280;63979;55.644;37.734;2024-03-22T05:49:19;100499.28;;;16.04;25.09
75409;BME280;63979;55.644;37.734;2024-03-22T05:54:20;100495.94;;;16.34;24.35
75409;BME280;63979;55.644;37.734;2024-03-22T05:59:21;100487.88;;;17.30;23.28
75409;BME280;63979;55.644;37.734;2024-03-22T06:04:22;100493.47;;;18.98;22.42
75409;BME280;63979;55.644;37.734;2024-03-22T06:09:24;100491.06;;;19.90;19.94
75409;BME280;63979;55.644;37.734;2024-03-22T06:14:34;100482.97;;;21.34;18.80
75409;BME280;63979;55.644;37.734;2024-03-22T06:19:36;100479.41;;;22.20;18.38
75409;BME280;63979;55.644;37.734;2024-03-22T06:24:37;100451.72;;;23.56;17.09
75409;BME280;63979;55.644;37.734;2024-03-22T06:29:38;100461.94;;;23.62;16.66
75409;BME280;63979;55.644;37.734;2024-03-22T06:34:39;100465.66;;;24.33;16.38
75409;BME280;63979;55.644;37.734;2024-03-22T06:39:40;100469.66;;;24.45;16.13
75409;BME280;63979;55.644;37.734;2024-03-22T06:44:41;100460.41;;;25.60;15.49
75409;BME280;63979;55.644;37.734;2024-03-22T06:49:42;100465.19;;;26.40;14.61
75409;BME280;63979;55.644;37.734;2024-03-22T06:54:42;100468.56;;;27.42;13.90
75409;BME280;63979;55.644;37.734;2024-03-22T06:59:43;100471.72;;;28.91;13.16
75409;BME280;63979;55.644;37.734;2024-03-22T07:04:44;100454.47;;;28.62;13.10
75409;BME280;63979;55.644;37.734;2024-03-22T07:09:45;100459.88;;;29.03;13.22
75409;BME280;63979;55.644;37.734;2024-03-22T07:14:48;100453.97;;;29.33;12.09
75409;BME280;63979;55.644;37.734;2024-03-22T07:19:52;100446.53;;;29.73;11.86
75409;BME280;63979;55.644;37.734;2024-03-22T07:24:53;100431.75;;;29.47;12.56
75409;BME280;63979;55.644;37.734;2024-03-22T07:29:55;100445.31;;;29.56;12.37
75409;BME280;63979;55.644;37.734;2024-03-22T07:34:56;100437.03;;;29.09;11.65
75409;BME280;63979;55.644;37.734;2024-03-22T07:39:57;100394.41;;;29.91;11.16
75409;BME280;63979;55.644;37.734;2024-03-22T07:44:58;100414.59;;;29.39;11.29
75409;BME280;63979;55.644;37.734;2024-03-22T07:49:59;100408.97;;;27.92;12.67
75409;BME280;63979;55.644;37.734;2024-03-22T07:55:00;100400.09;;;29.96;11.61
75409;BME280;63979;55.644;37.734;2024-03-22T08:00:05;100397.88;;;29.60;11.31
75409;BME280;63979;55.644;37.734;2024-03-22T08:05:07;100394.72;;;29.24;11.75
75409;BME280;63979;55.644;37.734;2024-03-22T08:10:09;100388.19;;;29.51;11.06
75409;BME280;63979;55.644;37.734;2024-03-22T08:15:09;100379.25;;;29.42;10.61
75409;BME280;63979;55.644;37.734;2024-03-22T08:20:11;100369.72;;;28.72;11.33
75409;BME280;63979;55.644;37.734;2024-03-22T08:25:11;100355.53;;;26.97;11.81
75409;BME280;63979;55.644;37.734;2024-03-22T08:30:13;100361.03;;;27.25;11.85
75409;BME280;63979;55.644;37.734;2024-03-22T08:35:14;100350.38;;;25.88;12.38
75409;BME280;63979;55.644;37.734;2024-03-22T08:40:15;100325.03;;;26.00;12.45
75409;BME280;63979;55.644;37.734;2024-03-22T08:45:16;100319.53;;;26.15;12.53
75409;BME280;63979;55.644;37.734;2024-03-22T08:50:17;100331.22;;;25.88;12.88
75409;BME280;63979;55.644;37.734;2024-03-22T08:55:18;100306.81;;;27.21;12.09
75409;BME280;63979;55.644;37.734;2024-03-22T09:00:19;100312.66;;;28.48;11.61
75409;BME280;63979;55.644;37.734;2024-03-22T09:05:19;100303.84;;;27.50;11.82
75409;BME280;63979;55.644;37.734;2024-03-22T09:10:21;100308.16;;;27.66;11.84
75409;BME280;63979;55.644;37.734;2024-03-22T09:15:22;100292.47;;;29.60;10.67
75409;BME280;63979;55.644;37.734;2024-03-22T09:20:23;100276.97;;;30.73;9.94
75409;BME280;63979;55.644;37.734;2024-03-22T09:25:24;100278.31;;;29.36;10.68
75409;BME280;63979;55.644;37.734;2024-03-22T09:30:25;100281.88;;;29.63;10.57
75409;BME280;63979;55.644;37.734;2024-03-22T09:35:26;100278.91;;;31.89;9.31
75409;BME280;63979;55.644;37.734;2024-03-22T09:40:28;100251.81;;;33.04;8.54
75409;BME280;63979;55.644;37.734;2024-03-22T09:45:29;100286.16;;;31.10;9.05
75409;BME280;63979;55.644;37.734;2024-03-22T09:50:32;100245.16;;;29.76;9.88
75409;BME280;63979;55.644;37.734;2024-03-22T09:55:35;100269.88;;;29.31;10.40
75409;BME280;63979;55.644;37.734;2024-03-22T10:00:37;100250.09;;;31.48;9.29
75409;BME280;63979;55.644;37.734;2024-03-22T10:05:38;100257.31;;;31.49;8.94
75409;BME280;63979;55.644;37.734;2024-03-22T10:10:39;100235.78;;;32.71;8.31
75409;BME280;63979;55.644;37.734;2024-03-22T10:15:40;100251.00;;;33.56;8.21
75409;BME280;63979;55.644;37.734;2024-03-22T10:20:41;100245.94;;;30.28;9.92
75409;BME280;63979;55.644;37.734;2024-03-22T10:25:42;100227.44;;;29.01;10.39
75409;BME280;63979;55.644;37.734;2024-03-22T10:30:44;100220.56;;;29.81;9.74
75409;BME280;63979;55.644;37.734;2024-03-22T10:35:46;100224.16;;;29.37;10.16
75409;BME280;63979;55.644;37.734;2024-03-22T10:40:48;100176.41;;;30.51;9.81
75409;BME280;63979;55.644;37.734;2024-03-22T10:45:51;100202.81;;;30.40;9.30
75409;BME280;63979;55.644;37.734;2024-03-22T10:51:00;100187.63;;;29.23;9.89
75409;BME280;63979;55.644;37.734;2024-03-22T10:56:03;100194.34;;;31.76;8.64
75409;BME280;63979;55.644;37.734;2024-03-22T11:01:05;100162.34;;;31.20;9.01
75409;BME280;63979;55.644;37.734;2024-03-22T11:06:07;100163.19;;;27.15;11.39
75409;BME280;63979;55.644;37.734;2024-03-22T11:11:10;100150.63;;;30.88;9.16
75409;BME280;63979;55.644;37.734;2024-03-22T11:16:11;100151.56;;;29.76;9.82
75409;BME280;63979;55.644;37.734;2024-03-22T11:21:12;100149.22;;;30.36;8.91
75409;BME280;63979;55.644;37.734;2024-03-22T11:26:13;100148.69;;;27.34;11.48
75409;BME280;63979;55.644;37.734;2024-03-22T11:31:14;100135.66;;;31.14;9.79
75409;BME280;63979;55.644;37.734;2024-03-22T11:36:15;100132.09;;;30.09;9.39
75409;BME280;63979;55.644;37.734;2024-03-22T11:41:24;100113.41;;;28.25;9.84
75409;BME280;63979;55.644;37.734;2024-03-22T11:46:26;100111.41;;;30.25;9.37
75409;BME280;63979;55.644;37.734;2024-03-22T11:51:28;100095.47;;;29.39;9.99
75409;BME280;63979;55.644;37.734;2024-03-22T11:56:29;100103.69;;;30.08;9.60
75409;BME280;63979;55.644;37.734;2024-03-22T12:01:32;100082.59;;;28.95;10.62
75409;BME280;63979;55.644;37.734;2024-03-22T12:06:34;100052.59;;;27.62;11.19
75409;BME280;63979;55.644;37.734;2024-03-22T12:11:35;100059.94;;;26.12;12.02
75409;BME280;63979;55.644;37.734;2024-03-22T12:16:36;100054.97;;;27.04;12.04
75409;BME280;63979;55.644;37.734;2024-03-22T12:21:38;100008.34;;;26.09;13.00
75409;BME280;63979;55.644;37.734;2024-03-22T12:26:39;100031.50;;;25.78;12.95
75409;BME280;63979;55.644;37.734;2024-03-22T12:31:40;100005.53;;;25.04;13.46
75409;BME280;63979;55.644;37.734;2024-03-22T12:36:42;100004.47;;;23.66;14.74
75409;BME280;63979;55.644;37.734;2024-03-22T12:41:43;99978.13;;;21.64;16.30
75409;BME280;63979;55.644;37.734;2024-03-22T12:46:44;99968.28;;;23.34;15.00
75409;BME280;63979;55.644;37.734;2024-03-22T12:51:45;99946.63;;;22.95;15.22
75409;BME280;63979;55.644;37.734;2024-03-22T12:56:47;99965.94;;;23.08;15.79
75409;BME280;63979;55.644;37.734;2024-03-22T13:01:48;99954.34;;;21.66;16.02
75409;BME280;63979;55.644;37.734;2024-03-22T13:06:49;99960.41;;;20.78;16.93
75409;BME280;63979;55.644;37.734;2024-03-22T13:11:51;99945.72;;;22.09;16.36
75409;BME280;63979;55.644;37.734;2024-03-22T13:16:51;99948.38;;;20.81;17.39
75409;BME280;63979;55.644;37.734;2024-03-22T13:21:53;99957.94;;;19.67;18.57
75409;BME280;63979;55.644;37.734;2024-03-22T13:26:54;99940.66;;;16.46;22.02
75409;BME280;63979;55.644;37.734;2024-03-22T13:31:55;99929.63;;;16.78;22.13
75409;BME280;63979;55.644;37.734;2024-03-22T13:36:56;99918.63;;;15.51;23.59
75409;BME280;63979;55.644;37.734;2024-03-22T13:41:57;99919.25;;;15.34;24.22
75409;BME280;63979;55.644;37.734;2024-03-22T13:46:58;99905.75;;;15.55;24.20
75409;BME280;63979;55.644;37.734;2024-03-22T13:51:59;99896.63;;;13.99;26.18
75409;BME280;63979;55.644;37.734;2024-03-22T13:57:00;99913.34;;;13.47;26.75
75409;BME280;63979;55.644;37.734;2024-03-22T14:02:01;99890.69;;;13.39;27.24
75409;BME280;63979;55.644;37.734;2024-03-22T14:07:02;99838.56;;;12.40;28.61
75409;BME280;63979;55.644;37.734;2024-03-22T14:12:05;99859.84;;;12.30;29.62
75409;BME280;63979;55.644;37.734;2024-03-22T14:17:07;99848.34;;;11.93;29.94
75409;BME280;63979;55.644;37.734;2024-03-22T14:22:26;99882.84;;;11.60;30.94
75409;BME280;63979;55.644;37.734;2024-03-22T14:27:27;99824.97;;;10.58;31.37
75409;BME280;63979;55.644;37.734;2024-03-22T14:32:28;99862.03;;;10.63;32.33
75409;BME280;63979;55.644;37.734;2024-03-22T14:37:29;99858.09;;;10.29;33.03
75409;BME280;63979;55.644;37.734;2024-03-22T14:42:30;99849.53;;;9.97;33.75
75409;BME280;63979;55.644;37.734;2024-03-22T14:47:31;99822.56;;;10.28;32.34
75409;BME280;63979;55.644;37.734;2024-03-22T14:52:32;99830.72;;;9.86;33.59
75409;BME280;63979;55.644;37.734;2024-03-22T14:57:33;99839.19;;;9.51;34.42
75409;BME280;63979;55.644;37.734;2024-03-22T15:02:35;99842.06;;;9.48;34.52
75409;BME280;63979;55.644;37.734;2024-03-22T15:07:36;99797.16;;;9.69;33.88
75409;BME280;63979;55.644;37.734;2024-03-22T15:12:37;99790.47;;;9.49;35.11
75409;BME280;63979;55.644;37.734;2024-03-22T15:17:38;99825.97;;;9.50;35.49
75409;BME280;63979;55.644;37.734;2024-03-22T15:22:39;99814.75;;;9.30;34.79
75409;BME280;63979;55.644;37.734;2024-03-22T15:27:40;99826.38;;;8.87;36.38
75409;BME280;63979;55.644;37.734;2024-03-22T15:32:41;99821.44;;;8.81;36.73
75409;BME280;63979;55.644;37.734;2024-03-22T15:37:42;99816.16;;;8.36;37.54
75409;BME280;63979;55.644;37.734;2024-03-22T15:42:42;99819.59;;;8.23;38.39
75409;BME280;63979;55.644;37.734;2024-03-22T15:47:44;99809.97;;;8.06;38.49
75409;BME280;63979;55.644;37.734;2024-03-22T15:52:45;99812.44;;;7.93;38.56
75409;BME280;63979;55.644;37.734;2024-03-22T15:57:46;99819.56;;;8.08;39.03
75409;BME280;63979;55.644;37.734;2024-03-22T16:02:47;99812.50;;;7.46;40.27
75409;BME280;63979;55.644;37.734;2024-03-22T16:07:49;99821.59;;;7.73;39.68
75409;BME280;63979;55.644;37.734;2024-03-22T16:12:50;99809.75;;;7.47;40.45
75409;BME280;63979;55.644;37.734;2024-03-22T16:17:51;99794.69;;;7.32;40.54
75409;BME280;63979;55.644;37.734;2024-03-22T16:22:51;99813.34;;;7.15;41.59
75409;BME280;63979;55.644;37.734;2024-03-22T16:27:52;99804.59;;;7.13;41.86
75409;BME280;63979;55.644;37.734;2024-03-22T16:32:53;99807.34;;;7.27;41.85
75409;BME280;63979;55.644;37.734;2024-03-22T16:37:54;99810.38;;;6.88;42.61
75409;BME280;63979;55.644;37.734;2024-03-22T16:42:55;99801.94;;;6.64;43.62
75409;BME280;63979;55.644;37.734;2024-03-22T16:47:56;99726.47;;;6.04;44.65
75409;BME280;63979;55.644;37.734;2024-03-22T16:52:57;99795.16;;;6.58;45.00
75409;BME280;63979;55.644;37.734;2024-03-22T16:58:18;99790.00;;;6.55;44.48
75409;BME280;63979;55.644;37.734;2024-03-22T17:03:20;99792.25;;;5.96;46.35
75409;BME280;63979;55.644;37.734;2024-03-22T17:08:21;99784.75;;;5.68;47.47
75409;BME280;63979;55.644;37.734;2024-03-22T17:13:23;99774.56;;;5.77;46.77
75409;BME280;63979;55.644;37.734;2024-03-22T17:18:24;99791.63;;;5.89;46.85
75409;BME280;63979;55.644;37.734;2024-03-22T17:23:25;99777.69;;;5.68;48.14
75409;BME280;63979;55.644;37.734;2024-03-22T17:28:26;99752.28;;;5.64;47.13
75409;BME280;63979;55.644;37.734;2024-03-22T17:33:27;99755.81;;;5.46;47.58
75409;BME280;63979;55.644;37.734;2024-03-22T17:38:28;99787.66;;;5.80;46.92
75409;BME280;63979;55.644;37.734;2024-03-22T17:43:32;99783.84;;;5.69;47.55
75409;BME280;63979;55.644;37.734;2024-03-22T17:48:33;99775.19;;;5.82;47.63
75409;BME280;63979;55.644;37.734;2024-03-22T17:53:35;99770.00;;;5.45;47.93
75409;BME280;63979;55.644;37.734;2024-03-22T17:58:35;99765.31;;;5.14;49.77
75409;BME280;63979;55.644;37.734;2024-03-22T18:03:36;99752.59;;;5.22;48.90
75409;BME280;63979;55.644;37.734;2024-03-22T18:08:39;99751.66;;;5.23;48.86
75409;BME280;63979;55.644;37.734;2024-03-22T18:13:40;99695.91;;;4.71;49.28
75409;BME280;63979;55.644;37.734;2024-03-22T18:18:40;99744.78;;;4.62;50.17
75409;BME280;63979;55.644;37.734;2024-03-22T18:23:41;99756.16;;;4.64;50.26
75409;BME280;63979;55.644;37.734;2024-03-22T18:28:42;99744.44;;;4.70;50.44
75409;BME280;63979;55.644;37.734;2024-03-22T18:33:43;99698.56;;;4.52;50.74
75409;BME280;63979;55.644;37.734;2024-03-22T18:38:44;99738.94;;;4.56;50.71
75409;BME280;63979;55.644;37.734;2024-03-22T18:43:45;99729.34;;;4.53;51.25
75409;BME280;63979;55.644;37.734;2024-03-22T18:48:46;99721.75;;;4.46;51.75
75409;BME280;63979;55.644;37.734;2024-03-22T18:53:46;99715.69;;;4.44;51.52
75409;BME280;63979;55.644;37.734;2024-03-22T18:58:47;99716.31;;;4.49;51.61
75409;BME280;63979;55.644;37.734;2024-03-22T19:03:49;99721.81;;;4.05;52.52
75409;BME280;63979;55.644;37.734;2024-03-22T19:08:49;99717.19;;;4.10;53.11
75409;BME280;63979;55.644;37.734;2024-03-22T19:13:50;99698.59;;;3.93;53.20
75409;BME280;63979;55.644;37.734;2024-03-22T19:18:51;99709.41;;;4.07;53.24
75409;BME280;63979;55.644;37.734;2024-03-22T19:23:52;99699.81;;;3.64;54.45
75409;BME280;63979;55.644;37.734;2024-03-22T19:28:53;99700.34;;;3.72;54.64
75409;BME280;63979;55.644;37.734;2024-03-22T19:33:54;99695.59;;;3.80;54.88
75409;BME280;63979;55.644;37.734;2024-03-22T19:38:55;99689.41;;;3.81;55.47
75409;BME280;63979;55.644;37.734;2024-03-22T19:43:56;99698.13;;;3.83;55.14
75409;BME280;63979;55.644;37.734;2024-03-22T19:48:56;99686.38;;;3.70;56.02
75409;BME280;63979;55.644;37.734;2024-03-22T19:53:57;99681.09;;;3.50;57.31
75409;BME280;63979;55.644;37.734;2024-03-22T19:58:58;99664.84;;;3.38;57.33
75409;BME280;63979;55.644;37.734;2024-03-22T20:03:59;99676.97;;;3.42;57.39
75409;BME280;63979;55.644;37.734;2024-03-22T20:09:00;99668.44;;;3.16;58.91
75409;BME280;63979;55.644;37.734;2024-03-22T20:14:01;99669.31;;;3.16;59.63
75409;BME280;63979;55.644;37.734;2024-03-22T20:19:04;99655.19;;;3.17;59.36
75409;BME280;63979;55.644;37.734;2024-03-22T20:24:06;99607.88;;;2.92;60.11
75409;BME280;63979;55.644;37.734;2024-03-22T20:29:07;99640.59;;;3.08;59.87
75409;BME280;63979;55.644;37.734;2024-03-22T20:34:08;99573.94;;;2.85;59.87
